Time;durP1;ratioP1;P1;durP2;ratioP2;P2;SDS_P1;SDS_P2;PMS_P1;PMS_P2;Temp;Humidity;BMP_temperature;BMP_pressure;BME280_temperature;BME280_humidity;BME280_pressure;Samples;Min_cycle;Max_cycle;Signal;HPM_P1;HPM_P2
2022/09/17 00:01:44;;;;;;;6.40;1.33;;;;;;;11.22;78.70;99805.94;7396496;19;20014;-68
2022/09/17 00:04:13;;;;;;;7.15;1.35;;;;;;;11.22;78.75;99806.81;7395745;19;20402;-68
2022/09/17 00:06:41;;;;;;;5.05;1.48;;;;;;;11.24;78.62;99804.97;7396330;19;20014;-68
2022/09/17 00:09:10;;;;;;;6.60;1.27;;;;;;;11.25;78.83;99806.69;7394261;19;20031;-68
2022/09/17 00:11:44;;;;;;;5.50;1.63;;;;;;;11.27;79.21;99803.16;7395025;19;20010;-68
2022/09/17 00:14:16;;;;;;;3.58;1.30;;;;;;;11.27;79.12;99813.66;7396499;19;20365;-68
2022/09/17 00:16:48;;;;;;;4.95;1.17;;;;;;;11.28;78.95;99805.69;7396611;19;20022;-68
2022/09/17 00:19:18;;;;;;;5.15;1.20;;;;;;;11.29;79.02;99824.94;7394977;19;20078;-68
2022/09/17 00:21:47;;;;;;;4.07;1.20;;;;;;;11.30;79.02;99813.50;7396296;19;20035;-68
2022/09/17 00:24:17;;;;;;;9.15;2.30;;;;;;;11.29;79.23;99825.78;7396569;19;20015;-68
2022/09/17 00:26:49;;;;;;;5.78;1.30;;;;;;;11.29;79.12;99817.06;7395417;19;20472;-68
2022/09/17 00:29:18;;;;;;;4.22;1.20;;;;;;;11.31;79.40;99825.72;7394521;19;20014;-68
2022/09/17 00:31:46;;;;;;;9.07;1.75;;;;;;;11.31;79.33;99833.59;7393572;19;20078;-69
2022/09/17 00:34:15;;;;;;;5.97;1.48;;;;;;;11.29;79.56;99833.66;7395705;19;20015;-68
2022/09/17 00:36:43;;;;;;;3.33;1.35;;;;;;;11.32;79.37;99827.44;7395192;19;20362;-68
2022/09/17 00:39:14;;;;;;;3.10;1.10;;;;;;;11.33;79.30;99831.78;7393828;19;20031;-68
2022/09/17 00:41:44;;;;;;;14.15;1.92;;;;;;;11.34;79.62;99833.50;7395841;19;20015;-69
2022/09/17 00:44:44;;;;;;;5.35;1.55;;;;;;;11.33;79.89;99835.25;7393526;19;20022;-68
2022/09/17 00:47:21;;;;;;;3.17;1.30;;;;;;;11.32;79.50;99824.81;7395665;19;20014;-69
2022/09/17 00:49:51;;;;;;;3.38;1.40;;;;;;;11.33;79.96;99827.38;7393564;19;20074;-69
2022/09/17 00:52:23;;;;;;;8.68;1.33;;;;;;;11.35;79.63;99836.06;7393014;19;20496;-69
2022/09/17 00:54:59;;;;;;;5.22;1.27;;;;;;;11.35;80.27;99835.22;7393738;19;20022;-68
2022/09/17 00:57:28;;;;;;;7.20;1.60;;;;;;;11.36;80.11;99837.78;7395274;19;20023;-68
2022/09/17 00:59:59;;;;;;;10.10;1.98;;;;;;;11.36;80.05;99844.78;7394988;19;20023;-68
2022/09/17 01:02:28;;;;;;;7.47;2.38;;;;;;;11.36;80.24;99848.28;7392777;19;20484;-68
2022/09/17 01:04:57;;;;;;;7.95;1.98;;;;;;;11.36;80.32;99850.03;7394846;19;20023;-68
2022/09/17 01:07:47;;;;;;;5.15;1.70;;;;;;;11.37;80.10;99850.00;7394708;19;20022;-67
2022/09/17 01:10:30;;;;;;;4.20;1.42;;;;;;;11.36;80.39;99850.91;7392017;19;20418;-68
2022/09/17 01:13:10;;;;;;;4.63;1.35;;;;;;;11.37;80.27;99846.50;7402084;19;20492;-69
2022/09/17 01:15:49;;;;;;;4.82;1.67;;;;;;;11.37;80.61;99851.75;7402370;19;20082;-69
2022/09/17 01:18:28;;;;;;;8.27;2.45;;;;;;;11.36;80.70;99845.66;7399535;19;20019;-69
2022/09/17 01:21:26;;;;;;;6.82;2.28;;;;;;;11.36;81.13;99850.03;7399637;19;20032;-69
2022/09/17 01:24:20;;;;;;;6.70;2.00;;;;;;;11.37;80.47;99843.88;7399528;19;20018;-69
2022/09/17 01:27:30;;;;;;;5.85;2.00;;;;;;;11.37;80.97;99846.50;7402351;19;20019;-69
2022/09/17 01:30:14;;;;;;;7.88;2.40;;;;;;;11.35;80.75;99843.09;7398295;19;20025;-69
2022/09/17 01:32:50;;;;;;;5.70;2.25;;;;;;;11.37;80.91;99864.88;7401587;19;20014;-69
2022/09/17 01:35:21;;;;;;;4.72;2.05;;;;;;;11.37;80.62;99841.25;7401084;19;20431;-69
2022/09/17 01:37:58;;;;;;;8.30;2.03;;;;;;;11.38;80.90;99861.34;7400652;19;20034;-69
2022/09/17 01:40:31;;;;;;;9.13;2.38;;;;;;;11.37;81.03;99851.75;7401720;19;20018;-69
2022/09/17 01:43:07;;;;;;;7.90;2.23;;;;;;;11.39;80.93;99863.06;7401545;19;20035;-69
2022/09/17 01:45:40;;;;;;;8.40;2.70;;;;;;;11.39;80.87;99853.41;7401521;19;20453;-69
2022/09/17 01:48:16;;;;;;;6.43;2.28;;;;;;;11.39;80.86;99860.44;7400713;19;20035;-69
2022/09/17 01:50:51;;;;;;;3.85;1.77;;;;;;;11.40;81.09;99857.75;7398477;19;20018;-68
2022/09/17 01:53:25;;;;;;;4.25;2.00;;;;;;;11.41;80.89;99861.22;7401280;19;20025;-69
2022/09/17 01:55:57;;;;;;;4.80;1.95;;;;;;;11.42;80.76;99862.94;7401172;19;20431;-69
2022/09/17 01:58:30;;;;;;;5.38;1.83;;;;;;;11.43;81.27;99867.28;7400030;19;20018;-69
2022/09/17 02:01:03;;;;;;;4.43;2.53;;;;;;;11.42;81.21;99865.56;7397853;19;20014;-69
2022/09/17 02:03:39;;;;;;;3.72;2.03;;;;;;;11.45;81.11;99870.69;7402676;19;20023;-69
2022/09/17 02:06:12;;;;;;;3.88;1.98;;;;;;;11.45;80.98;99869.81;7400613;19;20027;-69
2022/09/17 02:08:47;;;;;;;4.60;2.00;;;;;;;11.43;80.78;99856.75;7399140;19;20121;-69
2022/09/17 02:11:16;;;;;;;8.30;1.85;;;;;;;11.44;81.07;99866.38;7399081;19;20018;-69
2022/09/17 02:13:49;;;;;;;6.07;1.80;;;;;;;11.44;81.09;99869.00;7397775;19;20022;-69
2022/09/17 02:16:22;;;;;;;5.13;1.48;;;;;;;11.45;81.16;99875.97;7400025;19;20502;-69
2022/09/17 02:18:57;;;;;;;3.88;1.92;;;;;;;11.46;80.93;99877.69;7398705;19;20026;-69
2022/09/17 02:21:35;;;;;;;4.90;1.50;;;;;;;11.47;81.01;99875.88;7400294;19;20031;-69
2022/09/17 02:24:12;;;;;;;5.40;1.88;;;;;;;11.46;81.15;99875.06;7399956;19;20039;-69
2022/09/17 02:26:47;;;;;;;2.67;1.33;;;;;;;11.48;80.84;99867.09;7399332;19;20082;-69
2022/09/17 02:29:25;;;;;;;6.50;1.75;;;;;;;11.47;80.95;99868.84;7397399;19;20022;-69
2022/09/17 02:32:00;;;;;;;4.07;1.35;;;;;;;11.46;81.22;99876.81;7397195;19;20023;-69
2022/09/17 02:34:31;;;;;;;3.83;1.33;;;;;;;11.49;80.94;99871.44;7399160;19;20027;-69
2022/09/17 02:37:00;;;;;;;3.20;1.55;;;;;;;11.50;81.12;99873.13;7398920;19;20031;-69
2022/09/17 02:39:29;;;;;;;4.63;1.33;;;;;;;11.50;81.08;99871.38;7397326;19;20350;-69
2022/09/17 02:42:07;;;;;;;3.38;1.30;;;;;;;11.50;81.07;99871.38;7399371;19;20039;-69
2022/09/17 02:44:42;;;;;;;5.53;1.27;;;;;;;11.49;81.48;99871.44;7398859;19;20087;-69
2022/09/17 02:47:43;;;;;;;3.10;1.15;;;;;;;11.49;81.51;99866.19;7398859;19;20513;-69
2022/09/17 02:50:30;;;;;;;4.45;1.20;;;;;;;11.48;81.39;99869.72;7399599;19;20023;-69
2022/09/17 02:53:14;;;;;;;3.60;1.13;;;;;;;11.47;81.63;99866.22;7396436;19;20014;-69
2022/09/17 02:55:48;;;;;;;4.90;1.30;;;;;;;11.48;81.47;99864.47;7396524;19;20027;-69
2022/09/17 02:58:26;;;;;;;2.50;1.13;;;;;;;11.48;81.38;99861.84;7398203;19;20022;-69
2022/09/17 03:00:56;;;;;;;6.90;1.73;;;;;;;11.48;81.39;99864.47;7399169;19;20018;-69
2022/09/17 03:03:32;;;;;;;5.40;1.30;;;;;;;11.47;81.53;99855.72;7398219;19;20391;-70
2022/09/17 03:06:10;;;;;;;3.40;1.30;;;;;;;11.46;82.06;99864.53;7399958;19;20040;-70
2022/09/17 03:08:42;;;;;;;5.32;1.30;;;;;;;11.45;81.78;99860.19;7400207;19;20014;-67
2022/09/17 03:11:13;;;;;;;4.07;1.17;;;;;;;11.47;81.66;99860.13;7404475;19;20010;-68
2022/09/17 03:13:42;;;;;;;2.58;1.50;;;;;;;11.44;81.70;99852.34;7403996;19;20010;-68
2022/09/17 03:16:10;;;;;;;5.45;1.27;;;;;;;11.46;81.71;99861.03;7401682;19;20139;-70
2022/09/17 03:18:39;;;;;;;4.65;1.38;;;;;;;11.46;82.14;99861.03;7397238;19;20035;-69
2022/09/17 03:21:11;;;;;;;4.38;1.33;;;;;;;11.43;81.92;99861.19;7400344;19;20066;-67
2022/09/17 03:23:40;;;;;;;3.85;1.20;;;;;;;11.44;82.00;99861.09;7406296;19;20017;-68
2022/09/17 03:26:08;;;;;;;4.25;1.40;;;;;;;11.44;82.00;99865.50;7404983;19;20019;-68
2022/09/17 03:28:37;;;;;;;4.85;1.20;;;;;;;11.44;82.07;99868.13;7400713;19;20023;-68
2022/09/17 03:31:05;;;;;;;3.55;1.55;;;;;;;11.43;82.36;99864.66;7400544;19;20011;-69
2022/09/17 03:33:34;;;;;;;6.20;1.20;;;;;;;11.44;82.09;99874.25;7400998;19;20015;-68
2022/09/17 03:36:03;;;;;;;2.30;1.00;;;;;;;11.44;82.21;99869.00;7401444;19;20014;-68
2022/09/17 03:38:37;;;;;;;2.92;1.00;;;;;;;11.43;82.27;99872.53;7400776;19;20011;-68
2022/09/17 03:41:08;;;;;;;7.68;1.20;;;;;;;11.43;82.23;99867.28;7399820;19;20458;-68
2022/09/17 03:43:40;;;;;;;4.47;1.15;;;;;;;11.42;82.41;99868.19;7400937;19;20021;-69
2022/09/17 03:46:08;;;;;;;2.83;1.17;;;;;;;11.43;82.23;99866.44;7400568;19;20014;-69
2022/09/17 03:48:38;;;;;;;5.55;1.33;;;;;;;11.39;82.41;99863.06;7398702;19;20023;-68
2022/09/17 03:51:07;;;;;;;6.20;1.55;;;;;;;11.41;82.69;99866.47;7400867;19;20018;-68
2022/09/17 03:53:38;;;;;;;9.88;1.42;;;;;;;11.39;82.48;99866.53;7400953;19;20127;-69
2022/09/17 03:56:09;;;;;;;3.63;1.27;;;;;;;11.38;82.55;99870.06;7398258;19;20018;-69
2022/09/17 03:58:38;;;;;;;3.40;1.20;;;;;;;11.36;82.65;99877.16;7394568;19;20074;-69
2022/09/17 04:01:07;;;;;;;5.90;1.48;;;;;;;11.37;82.79;99867.50;7396421;19;20544;-69
2022/09/17 04:03:35;;;;;;;5.97;2.22;;;;;;;11.36;82.85;99878.91;7396248;19;20085;-68
2022/09/17 04:06:04;;;;;;;8.15;1.30;;;;;;;11.35;82.88;99875.44;7396487;19;20027;-70
2022/09/17 04:08:32;;;;;;;5.18;1.40;;;;;;;11.35;82.64;99875.44;7395614;19;20090;-68
2022/09/17 04:11:03;;;;;;;2.40;1.20;;;;;;;11.35;82.89;99869.34;7394350;19;20036;-69
2022/09/17 04:13:32;;;;;;;8.32;1.83;;;;;;;11.37;82.95;99872.75;7394778;19;20025;-68
2022/09/17 04:16:00;;;;;;;3.15;1.40;;;;;;;11.36;83.06;99871.91;7396259;19;20097;-68
2022/09/17 04:18:30;;;;;;;5.57;1.45;;;;;;;11.37;83.10;99880.63;7395883;19;20035;-65
2022/09/17 04:20:59;;;;;;;5.45;1.48;;;;;;;11.36;83.23;99866.66;7395637;19;20502;-67
2022/09/17 04:23:27;;;;;;;7.03;1.33;;;;;;;11.38;83.11;99871.84;7395753;19;20070;-69
2022/09/17 04:25:55;;;;;;;7.40;1.73;;;;;;;11.36;83.24;99871.03;7395797;19;20035;-68
2022/09/17 04:28:27;;;;;;;4.97;1.33;;;;;;;11.37;83.26;99867.50;7395053;19;20078;-68
2022/09/17 04:30:56;;;;;;;3.17;1.20;;;;;;;11.35;83.42;99870.19;7394502;19;20414;-67
2022/09/17 04:33:25;;;;;;;4.05;1.50;;;;;;;11.38;83.19;99880.56;7393977;19;20032;-69
2022/09/17 04:35:53;;;;;;;3.85;1.25;;;;;;;11.39;83.27;99877.03;7395491;19;20160;-68
2022/09/17 04:38:22;;;;;;;4.05;1.40;;;;;;;11.40;83.42;99872.66;7394632;19;20074;-68
2022/09/17 04:40:50;;;;;;;9.23;1.63;;;;;;;11.39;83.49;99873.56;7394703;19;20496;-68
2022/09/17 04:43:19;;;;;;;4.55;1.70;;;;;;;11.39;83.66;99882.28;7395428;19;20070;-68
2022/09/17 04:45:50;;;;;;;5.10;1.95;;;;;;;11.38;83.97;99882.34;7395149;19;20027;-69
2022/09/17 04:48:19;;;;;;;3.55;1.42;;;;;;;11.38;83.75;99887.59;7394925;19;20023;-68
2022/09/17 04:50:48;;;;;;;5.68;1.45;;;;;;;11.38;83.88;99885.81;7395259;19;20078;-69
2022/09/17 04:53:17;;;;;;;3.70;2.10;;;;;;;11.37;84.55;99883.25;7393266;19;20082;-68
2022/09/17 04:55:45;;;;;;;4.78;2.95;;;;;;;11.34;84.75;99878.16;7395095;19;20026;-68
2022/09/17 04:58:14;;;;;;;6.53;3.08;;;;;;;11.32;86.55;99890.47;7393145;19;20078;-68
2022/09/17 05:00:43;;;;;;;6.35;2.80;;;;;;;11.25;87.13;99888.06;7394708;19;20466;-68
2022/09/17 05:03:14;;;;;;;7.85;3.65;;;;;;;11.18;86.44;99886.59;7395232;19;20022;-68
2022/09/17 05:05:43;;;;;;;7.05;3.58;;;;;;;11.14;87.37;99903.38;7395259;19;20019;-68
2022/09/17 05:08:11;;;;;;;6.40;3.47;;;;;;;11.06;89.95;99900.19;7392796;19;20078;-68
2022/09/17 05:10:39;;;;;;;8.52;3.50;;;;;;;10.98;89.99;99897.00;7394848;19;20074;-68
2022/09/17 05:13:08;;;;;;;7.88;3.80;;;;;;;10.93;89.42;99905.03;7392799;19;20027;-69
2022/09/17 05:15:36;;;;;;;7.30;4.40;;;;;;;10.87;90.36;99906.13;7394173;19;20480;-69
2022/09/17 05:18:05;;;;;;;8.35;4.88;;;;;;;10.83;90.97;99909.78;7393742;19;20086;-69
2022/09/17 05:20:37;;;;;;;6.47;3.97;;;;;;;10.81;91.33;99911.59;7394263;19;20018;-69
2022/09/17 05:23:06;;;;;;;4.60;4.20;;;;;;;10.79;91.95;99910.78;7394695;19;20380;-69
2022/09/17 05:25:34;;;;;;;9.05;4.80;;;;;;;10.75;93.05;99924.91;7393947;19;20032;-69
2022/09/17 05:28:03;;;;;;;7.40;4.57;;;;;;;10.73;92.61;99918.88;7393631;19;20096;-69
2022/09/17 05:30:32;;;;;;;7.15;4.53;;;;;;;10.71;93.70;99918.06;7393265;19;20527;-74
2022/09/17 05:33:01;;;;;;;8.85;5.13;;;;;;;10.71;92.81;99926.78;7391750;19;20425;-69
2022/09/17 05:35:30;;;;;;;7.15;4.82;;;;;;;10.71;93.85;99924.16;7394211;19;20018;-69
2022/09/17 05:38:04;;;;;;;11.07;5.05;;;;;;;10.71;94.33;99925.94;7392857;19;20420;-69
2022/09/17 05:40:32;;;;;;;7.65;4.35;;;;;;;10.70;94.52;99929.47;7394021;19;20382;-69
2022/09/17 05:43:02;;;;;;;7.00;3.97;;;;;;;10.71;95.07;99939.06;7393052;19;20375;-68
2022/09/17 05:45:31;;;;;;;7.97;3.70;;;;;;;10.72;94.61;99930.28;7393650;19;20422;-69
2022/09/17 05:50:56;;;;;;;11.35;3.60;;;;;;;10.74;95.51;99931.06;7365306;19;20006;-69
2022/09/17 05:53:34;;;;;;;9.10;4.05;;;;;;;10.75;95.23;99932.78;7392051;19;20080;-69
2022/09/17 05:56:03;;;;;;;14.90;5.03;;;;;;;10.77;95.18;99930.97;7393927;19;20033;-69
2022/09/17 05:58:33;;;;;;;4.40;3.22;;;;;;;10.78;94.61;99935.31;7398346;19;20081;-69
2022/09/17 06:01:03;;;;;;;12.52;3.65;;;;;;;10.80;95.20;99932.63;7397515;19;20499;-69
2022/09/17 06:03:32;;;;;;;10.10;3.08;;;;;;;10.82;95.90;99936.06;7398097;19;20022;-70
2022/09/17 06:06:01;;;;;;;9.57;2.72;;;;;;;10.84;95.26;99948.22;7400494;19;20036;-69
2022/09/17 06:08:30;;;;;;;8.85;2.95;;;;;;;10.86;95.45;99941.13;7399992;19;20035;-69
2022/09/17 06:11:05;;;;;;;13.63;2.70;;;;;;;10.89;95.20;99954.16;7397709;19;20035;-69
2022/09/17 06:13:35;;;;;;;9.23;2.50;;;;;;;10.91;95.18;99933.94;7398297;19;20019;-69
2022/09/17 06:16:05;;;;;;;9.98;2.25;;;;;;;10.94;94.44;99940.84;7399793;19;20018;-69
2022/09/17 06:18:33;;;;;;;9.88;2.53;;;;;;;10.99;94.18;99945.94;7396907;19;20086;-69
2022/09/17 06:21:04;;;;;;;9.00;2.20;;;;;;;11.03;94.19;99952.78;7400295;19;20031;-70
2022/09/17 06:23:35;;;;;;;11.20;2.22;;;;;;;11.08;93.79;99950.84;7399946;19;20010;-69
2022/09/17 06:26:07;;;;;;;12.68;2.88;;;;;;;11.14;93.48;99939.28;7396820;19;20014;-69
2022/09/17 06:28:36;;;;;;;12.48;2.63;;;;;;;11.21;93.13;99943.41;7399669;19;20023;-68
2022/09/17 06:31:06;;;;;;;12.75;2.05;;;;;;;11.28;92.87;99951.91;7399150;19;20036;-69
2022/09/17 06:33:36;;;;;;;9.95;2.10;;;;;;;11.33;91.88;99953.44;7397396;19;20022;-69
2022/09/17 06:36:07;;;;;;;8.40;1.75;;;;;;;11.38;91.08;99963.78;7400032;19;20476;-67
2022/09/17 06:38:37;;;;;;;13.70;2.40;;;;;;;11.38;89.46;99959.38;7398844;19;20466;-67
2022/09/17 06:41:08;;;;;;;11.60;1.98;;;;;;;11.41;90.08;99959.25;7398890;19;20023;-66
2022/09/17 06:43:36;;;;;;;9.32;2.75;;;;;;;11.45;89.87;99956.50;7397658;19;20039;-67
2022/09/17 06:46:07;;;;;;;11.98;1.92;;;;;;;11.48;89.85;99959.88;7398866;19;20018;-66
2022/09/17 06:48:38;;;;;;;6.65;1.92;;;;;;;11.51;88.80;99965.03;7399711;19;20011;-66
2022/09/17 06:51:08;;;;;;;10.30;2.35;;;;;;;11.55;88.17;99971.88;7398799;19;20022;-67
2022/09/17 06:53:38;;;;;;;12.55;2.10;;;;;;;11.57;88.06;99969.19;7396265;19;20031;-67
2022/09/17 06:56:11;;;;;;;11.57;2.10;;;;;;;11.60;87.61;99968.19;7399333;19;20037;-67
2022/09/17 06:58:40;;;;;;;13.07;3.07;;;;;;;11.61;86.79;99970.75;7399220;19;20029;-67
2022/09/17 07:01:09;;;;;;;14.15;4.13;;;;;;;11.64;87.39;99962.78;7396355;19;20445;-66
2022/09/17 07:03:38;;;;;;;12.05;2.70;;;;;;;11.66;86.99;99965.34;7399544;19;20036;-68
2022/09/17 07:06:10;;;;;;;9.75;3.38;;;;;;;11.67;86.20;99972.31;7396173;19;20022;-67
2022/09/17 07:08:39;;;;;;;14.40;4.65;;;;;;;11.67;86.06;99975.78;7393426;19;20480;-67
2022/09/17 07:11:10;;;;;;;12.52;3.13;;;;;;;11.69;85.92;99962.59;7396264;19;20022;-67
2022/09/17 07:13:39;;;;;;;11.60;2.28;;;;;;;11.69;85.22;99963.47;7397412;19;20070;-68
2022/09/17 07:16:08;;;;;;;11.88;2.15;;;;;;;11.72;84.61;99973.84;7395849;19;20014;-66
2022/09/17 07:18:36;;;;;;;8.77;2.30;;;;;;;11.73;84.15;99957.16;7398308;19;20047;-67
2022/09/17 07:21:07;;;;;;;11.57;2.30;;;;;;;11.73;83.54;99966.81;7395461;19;20018;-67
2022/09/17 07:23:37;;;;;;;14.15;2.40;;;;;;;11.77;84.00;99968.41;7398015;19;20499;-67
2022/09/17 07:26:07;;;;;;;9.60;2.10;;;;;;;11.81;83.56;99967.38;7397327;19;20361;-67
2022/09/17 07:28:40;;;;;;;10.45;2.83;;;;;;;11.84;83.36;99972.53;7396881;19;20022;-67
2022/09/17 07:31:10;;;;;;;11.43;2.58;;;;;;;11.89;83.77;99952.16;7396729;19;20018;-67
2022/09/17 07:33:39;;;;;;;9.77;2.65;;;;;;;11.93;83.34;99963.41;7395090;19;20011;-66
2022/09/17 07:36:10;;;;;;;9.30;2.40;;;;;;;11.98;83.08;99969.38;7395652;19;20031;-66
2022/09/17 07:38:39;;;;;;;11.60;2.65;;;;;;;12.02;82.50;99954.34;7394672;19;20507;-68
2022/09/17 07:41:11;;;;;;;10.68;2.42;;;;;;;12.03;82.12;99961.28;7394848;19;20480;-66
2022/09/17 07:43:43;;;;;;;12.85;2.63;;;;;;;12.02;81.08;99957.81;7397251;19;20041;-67
2022/09/17 07:46:15;;;;;;;16.75;2.55;;;;;;;12.07;81.58;99965.53;7396389;19;20492;-66
2022/09/17 07:48:45;;;;;;;10.02;1.92;;;;;;;12.06;79.95;99959.38;7396352;19;20022;-67
2022/09/17 07:51:17;;;;;;;9.93;2.22;;;;;;;12.10;80.51;99957.50;7394267;19;20381;-66
2022/09/17 07:53:46;;;;;;;10.57;2.72;;;;;;;12.14;80.62;99972.22;7395942;19;20015;-66
2022/09/17 07:56:15;;;;;;;10.60;2.05;;;;;;;12.19;80.81;99962.38;7394490;19;20018;-66
2022/09/17 07:58:46;;;;;;;7.22;2.42;;;;;;;12.22;79.71;99971.94;7394621;19;20111;-66
2022/09/17 08:01:16;;;;;;;13.25;2.40;;;;;;;12.22;78.09;99967.53;7396192;19;20015;-67
2022/09/17 08:03:49;;;;;;;16.77;5.97;;;;;;;12.30;79.88;99974.25;7396511;19;20024;-67
2022/09/17 08:06:21;;;;;;;15.40;4.85;;;;;;;12.37;79.54;99970.44;7394232;19;20022;-67
2022/09/17 08:08:49;;;;;;;11.57;5.82;;;;;;;12.45;79.42;99975.34;7393751;19;20508;-67
2022/09/17 08:11:19;;;;;;;9.48;2.50;;;;;;;12.48;77.03;99976.09;7396010;19;20023;-67
2022/09/17 08:13:53;;;;;;;8.27;2.13;;;;;;;12.48;76.30;99983.97;7395230;19;20022;-67
2022/09/17 08:16:23;;;;;;;8.02;2.45;;;;;;;12.49;77.00;99987.50;7394489;19;20018;-66
2022/09/17 08:18:56;;;;;;;9.07;3.05;;;;;;;12.49;76.99;99990.13;7395212;19;20360;-68
2022/09/17 08:21:25;;;;;;;9.55;2.70;;;;;;;12.51;76.50;99990.88;7395100;19;20066;-67
2022/09/17 08:23:54;;;;;;;9.95;1.83;;;;;;;12.50;75.79;99999.72;7395031;19;20043;-66
2022/09/17 08:26:24;;;;;;;10.15;2.20;;;;;;;12.51;76.04;99983.88;7395211;19;20032;-66
2022/09/17 08:28:57;;;;;;;5.25;1.30;;;;;;;12.50;75.40;100002.38;7394619;19;20015;-67
2022/09/17 08:31:28;;;;;;;8.35;2.17;;;;;;;12.54;76.42;100004.78;7394138;19;20018;-67
2022/09/17 08:33:58;;;;;;;7.15;2.15;;;;;;;12.57;76.42;99995.91;7393861;19;20495;-67
2022/09/17 08:36:27;;;;;;;10.65;2.30;;;;;;;12.59;75.96;99994.06;7395062;19;20032;-67
2022/09/17 08:38:57;;;;;;;6.25;1.42;;;;;;;12.62;75.56;100000.97;7394180;19;20505;-67
2022/09/17 08:41:33;;;;;;;9.23;1.83;;;;;;;12.65;75.31;100000.84;7395214;19;20011;-67
2022/09/17 08:44:23;;;;;;;9.77;2.05;;;;;;;12.74;75.25;99994.31;7394708;19;20438;-66
2022/09/17 08:46:54;;;;;;;8.90;2.08;;;;;;;12.80;73.87;100000.22;7396263;19;20036;-66
2022/09/17 08:49:32;;;;;;;6.68;1.25;;;;;;;12.82;72.55;100011.50;7394561;19;20034;-67
2022/09/17 08:52:23;;;;;;;11.20;1.52;;;;;;;12.82;72.87;100000.97;7393923;19;20007;-67
2022/09/17 08:55:02;;;;;;;10.43;1.83;;;;;;;12.86;73.90;99994.69;7392401;19;20078;-67
2022/09/17 08:57:39;;;;;;;7.57;1.90;;;;;;;12.86;73.21;100005.22;7395283;19;20017;-67
2022/09/17 09:00:14;;;;;;;9.45;1.67;;;;;;;12.87;74.09;100001.63;7393669;19;20026;-67
2022/09/17 09:03:09;;;;;;;10.98;1.65;;;;;;;12.93;74.10;100012.81;7392787;19;20040;-67
2022/09/17 09:05:44;;;;;;;10.13;2.22;;;;;;;12.96;72.89;100010.91;7393753;19;20018;-66
2022/09/17 09:08:18;;;;;;;9.73;1.83;;;;;;;12.97;71.82;100022.31;7394441;19;20041;-67
2022/09/17 09:10:51;;;;;;;9.25;2.58;;;;;;;12.92;70.82;100009.34;7392886;19;20022;-66
2022/09/17 09:13:23;;;;;;;12.47;3.10;;;;;;;12.93;72.66;100012.81;7392887;19;20039;-67
2022/09/17 09:16:00;;;;;;;16.67;2.22;;;;;;;13.00;72.11;100016.91;7394339;19;20022;-68
2022/09/17 09:18:32;;;;;;;10.02;1.88;;;;;;;13.06;72.29;100019.28;7394688;19;20018;-66
2022/09/17 09:21:16;;;;;;;9.98;1.92;;;;;;;13.13;71.07;100022.47;7392851;19;20014;-67
2022/09/17 09:23:55;;;;;;;11.48;2.28;;;;;;;13.18;70.56;100004.69;7395499;19;20031;-67
2022/09/17 09:26:25;;;;;;;7.35;1.65;;;;;;;13.20;69.65;100011.63;7395420;19;20022;-67
2022/09/17 09:29:18;;;;;;;6.03;1.83;;;;;;;13.27;69.37;100030.66;7393451;19;20035;-67
2022/09/17 09:32:05;;;;;;;9.68;2.28;;;;;;;13.25;68.66;100027.22;7394977;19;20031;-67
2022/09/17 09:34:36;;;;;;;8.75;1.85;;;;;;;13.19;68.51;100025.72;7400691;19;20018;-67
2022/09/17 09:37:16;;;;;;;9.55;2.38;;;;;;;13.18;68.73;100020.50;7400807;19;20022;-68
2022/09/17 09:40:24;;;;;;;12.40;2.22;;;;;;;13.20;70.36;100018.66;7401787;19;20018;-67
2022/09/17 09:42:57;;;;;;;5.88;1.33;;;;;;;13.24;69.19;100025.50;7400559;19;20124;-67
2022/09/17 09:45:38;;;;;;;12.52;1.50;;;;;;;13.29;68.64;100022.66;7402440;19;20031;-68
2022/09/17 09:48:14;;;;;;;7.90;1.42;;;;;;;13.36;69.01;100022.31;7403008;19;20019;-67
2022/09/17 09:50:49;;;;;;;8.40;1.70;;;;;;;13.38;66.81;100024.91;7400509;19;20018;-66
2022/09/17 09:53:35;;;;;;;6.32;1.20;;;;;;;13.40;67.73;100041.53;7400791;19;20024;-67
2022/09/17 09:56:28;;;;;;;8.00;1.42;;;;;;;13.46;66.39;100040.41;7400233;19;20028;-67
2022/09/17 09:58:57;;;;;;;5.82;1.10;;;;;;;13.54;67.53;100037.44;7401575;19;20508;-68
2022/09/17 10:01:30;;;;;;;6.30;1.30;;;;;;;13.60;66.30;100045.06;7402941;19;20015;-68
2022/09/17 10:04:01;;;;;;;11.15;2.97;;;;;;;13.59;66.25;100051.25;7401613;19;20371;-67
2022/09/17 10:06:32;;;;;;;7.80;1.35;;;;;;;13.57;67.03;100038.13;7402251;19;20567;-67
2022/09/17 10:09:13;;;;;;;8.73;1.60;;;;;;;13.54;67.07;100038.25;7403110;19;20033;-67
2022/09/17 10:11:42;;;;;;;4.32;1.85;;;;;;;13.54;65.90;100047.97;7402702;19;20033;-67
2022/09/17 10:14:24;;;;;;;4.32;1.20;;;;;;;13.58;64.63;100049.53;7405369;19;20502;-68
2022/09/17 10:17:14;;;;;;;8.88;1.98;;;;;;;13.65;63.75;100056.25;7402426;19;20014;-68
2022/09/17 10:19:46;;;;;;;5.15;1.42;;;;;;;13.66;64.31;100063.19;7398219;19;20022;-67
2022/09/17 10:22:27;;;;;;;3.70;0.80;;;;;;;13.64;63.05;100072.97;7401806;19;20095;-67
2022/09/17 10:24:58;;;;;;;5.53;0.88;;;;;;;13.61;64.17;100059.91;7402047;19;20017;-67
2022/09/17 10:27:28;;;;;;;4.10;1.00;;;;;;;13.60;65.80;100056.44;7400657;19;20010;-67
2022/09/17 10:30:04;;;;;;;3.72;0.77;;;;;;;13.56;66.47;100062.78;7399655;19;20035;-67
2022/09/17 10:32:33;;;;;;;6.40;1.10;;;;;;;13.56;67.23;100064.53;7401155;19;20483;-67
2022/09/17 10:35:08;;;;;;;6.00;1.30;;;;;;;13.56;68.24;100062.78;7399076;19;20423;-67
2022/09/17 10:37:44;;;;;;;4.60;0.95;;;;;;;13.55;68.19;100057.56;7397832;19;20148;-67
2022/09/17 10:40:29;;;;;;;5.10;1.35;;;;;;;13.49;68.73;100059.53;7398641;19;20022;-67
2022/09/17 10:43:20;;;;;;;13.27;1.30;;;;;;;13.49;69.17;100067.44;7400909;19;20018;-66
2022/09/17 10:45:58;;;;;;;4.72;1.40;;;;;;;13.55;69.43;100062.81;7401086;19;20006;-67
2022/09/17 10:48:30;;;;;;;7.75;1.50;;;;;;;13.65;69.34;100057.09;7401052;19;20015;-66
2022/09/17 10:51:05;;;;;;;7.45;1.50;;;;;;;13.73;67.82;100063.78;7398524;19;20011;-68
2022/09/17 10:53:54;;;;;;;9.77;1.42;;;;;;;13.82;68.38;100056.28;7398466;19;20003;-67
2022/09/17 10:56:29;;;;;;;5.82;1.25;;;;;;;13.91;67.25;100056.81;7398115;19;20023;-66
2022/09/17 10:59:06;;;;;;;9.38;1.77;;;;;;;14.02;67.30;100062.44;7400282;19;20045;-67
2022/09/17 11:01:46;;;;;;;7.72;1.33;;;;;;;14.10;64.21;100065.59;7400728;19;20028;-67
2022/09/17 11:04:42;;;;;;;11.60;1.65;;;;;;;14.16;61.99;100060.00;7397106;19;20484;-68
2022/09/17 11:07:34;;;;;;;6.03;1.27;;;;;;;14.20;61.35;100055.44;7400212;19;20018;-67
2022/09/17 11:10:14;;;;;;;8.32;1.48;;;;;;;14.24;60.98;100058.78;7398031;19;20011;-67
2022/09/17 11:13:01;;;;;;;9.82;1.50;;;;;;;14.25;60.77;100055.22;7399134;19;20018;-67
2022/09/17 11:15:42;;;;;;;5.55;1.05;;;;;;;14.23;60.68;100057.94;7396561;19;20023;-67
2022/09/17 11:18:41;;;;;;;5.90;1.52;;;;;;;14.28;59.93;100068.25;7396499;19;20095;-67
2022/09/17 11:21:24;;;;;;;7.72;1.70;;;;;;;14.21;63.33;100064.22;7396556;19;20010;-66
2022/09/17 11:24:31;;;;;;;8.13;1.40;;;;;;;14.20;64.92;100073.88;7396378;19;20362;-67
2022/09/17 11:27:09;;;;;;;8.95;1.20;;;;;;;14.12;62.96;100066.34;7398072;19;20018;-67
2022/09/17 11:29:58;;;;;;;5.25;1.02;;;;;;;14.14;64.63;100055.72;7396336;19;20402;-67
2022/09/17 11:32:43;;;;;;;8.52;1.88;;;;;;;14.23;65.05;100054.41;7398396;19;20022;-67
2022/09/17 11:35:15;;;;;;;6.55;1.13;;;;;;;14.27;61.64;100069.19;7396573;19;20024;-67
2022/09/17 11:37:48;;;;;;;4.72;1.00;;;;;;;14.34;59.49;100075.88;7398496;19;20015;-68
2022/09/17 11:40:27;;;;;;;5.28;1.13;;;;;;;14.34;54.44;100050.34;7397010;19;20033;-68
2022/09/17 11:42:59;;;;;;;7.55;0.90;;;;;;;14.39;54.38;100055.38;7397920;19;20382;-66
2022/09/17 11:45:34;;;;;;;7.72;1.30;;;;;;;14.42;55.89;100049.97;7398424;19;20018;-65
2022/09/17 11:48:08;;;;;;;3.08;0.68;;;;;;;14.45;54.66;100028.69;7397526;19;20383;-67
2022/09/17 11:50:44;;;;;;;4.20;0.70;;;;;;;14.55;54.48;100030.91;7395790;19;20011;-66
2022/09/17 11:53:22;;;;;;;4.22;1.35;;;;;;;14.65;56.04;100034.81;7395914;19;20010;-67
2022/09/17 11:55:58;;;;;;;11.00;4.25;;;;;;;14.79;54.97;100036.75;7393449;19;20495;-66
2022/09/17 11:58:34;;;;;;;4.43;1.42;;;;;;;14.89;52.56;100023.97;7395988;19;20036;-66
2022/09/17 12:01:05;;;;;;;5.68;1.33;;;;;;;14.92;53.09;100039.63;7397715;19;20034;-64
2022/09/17 12:03:40;;;;;;;9.65;1.05;;;;;;;14.99;53.33;100033.09;7397888;19;20031;-68